sensor_id;sensor_type;location;lat;lon;timestamp;temperature;humidity
7530;DHT22;3806;52.270;10.544;2023-10-09T00:00:53;14.20;99.90
7530;DHT22;3806;52.270;10.544;2023-10-09T00:03:27;14.20;99.90
7530;DHT22;3806;52.270;10.544;2023-10-09T00:05:53;14.20;99.90
7530;DHT22;3806;52.270;10.544;2023-10-09T00:08:19;14.20;99.90
7530;DHT22;3806;52.270;10.544;2023-10-09T00:10:52;14.20;99.90
7530;DHT22;3806;52.270;10.544;2023-10-09T00:13:21;14.30;99.90
7530;DHT22;3806;52.270;10.544;2023-10-09T00:15:54;14.30;99.90
7530;DHT22;3806;52.270;10.544;2023-10-09T00:18:24;14.30;99.90
7530;DHT22;3806;52.270;10.544;2023-10-09T00:20:58;14.30;99.90
7530;DHT22;3806;52.270;10.544;2023-10-09T00:23:36;14.30;99.90
7530;DHT22;3806;52.270;10.544;2023-10-09T00:26:02;14.30;99.70
7530;DHT22;3806;52.270;10.544;2023-10-09T00:28:37;14.30;99.30
7530;DHT22;3806;52.270;10.544;2023-10-09T00:31:06;14.30;98.90
7530;DHT22;3806;52.270;10.544;2023-10-09T00:33:33;14.30;98.80
7530;DHT22;3806;52.270;10.544;2023-10-09T00:36:05;14.30;98.70
7530;DHT22;3806;52.270;10.544;2023-10-09T00:38:43;14.30;98.60
7530;DHT22;3806;52.270;10.544;2023-10-09T00:41:16;14.30;98.30
7530;DHT22;3806;52.270;10.544;2023-10-09T00:43:46;14.30;98.20
7530;DHT22;3806;52.270;10.544;2023-10-09T00:46:16;14.20;98.00
7530;DHT22;3806;52.270;10.544;2023-10-09T00:48:55;14.30;97.90
7530;DHT22;3806;52.270;10.544;2023-10-09T00:51:22;14.30;97.80
7530;DHT22;3806;52.270;10.544;2023-10-09T00:53:52;14.20;97.80
7530;DHT22;3806;52.270;10.544;2023-10-09T00:56:22;14.20;97.80
7530;DHT22;3806;52.270;10.544;2023-10-09T00:58:58;14.20;97.70
7530;DHT22;3806;52.270;10.544;2023-10-09T01:01:33;14.30;97.40
7530;DHT22;3806;52.270;10.544;2023-10-09T01:04:23;14.20;97.40
7530;DHT22;3806;52.270;10.544;2023-10-09T01:06:50;14.10;97.70
7530;DHT22;3806;52.270;10.544;2023-10-09T01:09:33;14.10;97.80
7530;DHT22;3806;52.270;10.544;2023-10-09T01:12:08;14.10;97.90
7530;DHT22;3806;52.270;10.544;2023-10-09T01:14:45;14.10;97.90
7530;DHT22;3806;52.270;10.544;2023-10-09T01:17:11;14.10;97.70
7530;DHT22;3806;52.270;10.544;2023-10-09T01:19:44;14.10;97.60
7530;DHT22;3806;52.270;10.544;2023-10-09T01:22:10;14.10;97.50
7530;DHT22;3806;52.270;10.544;2023-10-09T01:24:41;14.10;97.50
7530;DHT22;3806;52.270;10.544;2023-10-09T01:27:07;14.10;97.50
7530;DHT22;3806;52.270;10.544;2023-10-09T01:29:43;14.10;97.50
7530;DHT22;3806;52.270;10.544;2023-10-09T01:32:09;14.10;97.50
7530;DHT22;3806;52.270;10.544;2023-10-09T01:34:42;14.20;97.60
7530;DHT22;3806;52.270;10.544;2023-10-09T01:37:08;14.20;97.50
7530;DHT22;3806;52.270;10.544;2023-10-09T01:39:40;14.20;97.30
7530;DHT22;3806;52.270;10.544;2023-10-09T01:42:07;14.20;97.30
7530;DHT22;3806;52.270;10.544;2023-10-09T01:44:33;14.20;97.20
7530;DHT22;3806;52.270;10.544;2023-10-09T01:47:08;14.20;97.30
7530;DHT22;3806;52.270;10.544;2023-10-09T01:49:34;14.30;97.50
7530;DHT22;3806;52.270;10.544;2023-10-09T01:52:02;14.20;97.40
7530;DHT22;3806;52.270;10.544;2023-10-09T01:54:38;14.20;97.40
7530;DHT22;3806;52.270;10.544;2023-10-09T01:57:08;14.20;97.50
7530;DHT22;3806;52.270;10.544;2023-10-09T01:59:38;14.30;97.50
7530;DHT22;3806;52.270;10.544;2023-10-09T02:02:11;14.30;97.50
7530;DHT22;3806;52.270;10.544;2023-10-09T02:04:50;14.30;97.40
7530;DHT22;3806;52.270;10.544;2023-10-09T02:07:16;14.30;97.20
7530;DHT22;3806;52.270;10.544;2023-10-09T02:09:47;14.30;97.00
7530;DHT22;3806;52.270;10.544;2023-10-09T02:12:13;14.30;96.80
7530;DHT22;3806;52.270;10.544;2023-10-09T02:14:39;14.30;96.90
7530;DHT22;3806;52.270;10.544;2023-10-09T02:17:07;14.30;97.20
7530;DHT22;3806;52.270;10.544;2023-10-09T02:19:43;14.30;97.00
7530;DHT22;3806;52.270;10.544;2023-10-09T02:22:13;14.30;97.10
7530;DHT22;3806;52.270;10.544;2023-10-09T02:24:40;14.30;97.30
7530;DHT22;3806;52.270;10.544;2023-10-09T02:27:16;14.20;97.40
7530;DHT22;3806;52.270;10.544;2023-10-09T02:29:52;14.20;97.60
7530;DHT22;3806;52.270;10.544;2023-10-09T02:32:17;14.20;97.70
7530;DHT22;3806;52.270;10.544;2023-10-09T02:34:51;14.10;97.50
7530;DHT22;3806;52.270;10.544;2023-10-09T02:37:19;14.20;97.30
7530;DHT22;3806;52.270;10.544;2023-10-09T02:39:49;14.30;97.20
7530;DHT22;3806;52.270;10.544;2023-10-09T02:42:18;14.20;97.20
7530;DHT22;3806;52.270;10.544;2023-10-09T02:44:50;14.20;97.40
7530;DHT22;3806;52.270;10.544;2023-10-09T02:47:17;14.20;97.20
7530;DHT22;3806;52.270;10.544;2023-10-09T02:49:46;14.10;97.50
7530;DHT22;3806;52.270;10.544;2023-10-09T02:52:13;14.10;97.80
7530;DHT22;3806;52.270;10.544;2023-10-09T02:54:44;14.00;97.80
7530;DHT22;3806;52.270;10.544;2023-10-09T02:57:12;14.00;98.00
7530;DHT22;3806;52.270;10.544;2023-10-09T02:59:47;13.90;98.40
7530;DHT22;3806;52.270;10.544;2023-10-09T03:02:13;13.80;98.70
7530;DHT22;3806;52.270;10.544;2023-10-09T03:04:38;13.70;99.10
7530;DHT22;3806;52.270;10.544;2023-10-09T03:07:06;13.70;99.40
7530;DHT22;3806;52.270;10.544;2023-10-09T03:09:32;13.70;99.70
7530;DHT22;3806;52.270;10.544;2023-10-09T03:12:02;13.70;99.90
7530;DHT22;3806;52.270;10.544;2023-10-09T03:14:33;13.70;99.90
7530;DHT22;3806;52.270;10.544;2023-10-09T03:17:01;13.70;99.90
7530;DHT22;3806;52.270;10.544;2023-10-09T03:19:28;13.70;99.90
7530;DHT22;3806;52.270;10.544;2023-10-09T03:21:54;13.80;99.90
7530;DHT22;3806;52.270;10.544;2023-10-09T03:24:23;13.70;99.90
7530;DHT22;3806;52.270;10.544;2023-10-09T03:26:48;13.70;99.90
7530;DHT22;3806;52.270;10.544;2023-10-09T03:29:15;13.80;99.90
7530;DHT22;3806;52.270;10.544;2023-10-09T03:31:40;13.70;99.90
7530;DHT22;3806;52.270;10.544;2023-10-09T03:34:08;13.70;99.90
7530;DHT22;3806;52.270;10.544;2023-10-09T03:36:36;13.70;99.90
7530;DHT22;3806;52.270;10.544;2023-10-09T03:39:05;13.70;99.90
7530;DHT22;3806;52.270;10.544;2023-10-09T03:41:44;13.70;99.90
7530;DHT22;3806;52.270;10.544;2023-10-09T03:44:15;13.70;99.90
7530;DHT22;3806;52.270;10.544;2023-10-09T03:46:46;13.70;99.90
7530;DHT22;3806;52.270;10.544;2023-10-09T03:49:12;13.70;99.90
7530;DHT22;3806;52.270;10.544;2023-10-09T03:51:39;13.70;99.90
7530;DHT22;3806;52.270;10.544;2023-10-09T03:54:07;13.80;99.90
7530;DHT22;3806;52.270;10.544;2023-10-09T03:56:34;13.70;99.90
7530;DHT22;3806;52.270;10.544;2023-10-09T03:59:00;13.70;99.90
7530;DHT22;3806;52.270;10.544;2023-10-09T04:01:26;13.70;99.90
7530;DHT22;3806;52.270;10.544;2023-10-09T04:03:56;13.70;99.90
7530;DHT22;3806;52.270;10.544;2023-10-09T04:06:25;13.70;99.90
7530;DHT22;3806;52.270;10.544;2023-10-09T04:09:02;13.60;99.90
7530;DHT22;3806;52.270;10.544;2023-10-09T04:14:16;13.60;99.90
7530;DHT22;3806;52.270;10.544;2023-10-09T04:16:58;13.70;99.90
7530;DHT22;3806;52.270;10.544;2023-10-09T04:19:31;13.70;99.90
7530;DHT22;3806;52.270;10.544;2023-10-09T04:22:05;13.70;99.90
7530;DHT22;3806;52.270;10.544;2023-10-09T04:24:33;13.70;99.90
7530;DHT22;3806;52.270;10.544;2023-10-09T04:27:06;13.70;99.90
7530;DHT22;3806;52.270;10.544;2023-10-09T04:29:33;13.80;99.90
7530;DHT22;3806;52.270;10.544;2023-10-09T04:32:05;13.80;99.90
7530;DHT22;3806;52.270;10.544;2023-10-09T04:34:41;13.80;99.90
7530;DHT22;3806;52.270;10.544;2023-10-09T04:37:36;13.80;99.90
7530;DHT22;3806;52.270;10.544;2023-10-09T04:40:05;13.90;99.90
7530;DHT22;3806;52.270;10.544;2023-10-09T04:42:38;13.90;99.90
7530;DHT22;3806;52.270;10.544;2023-10-09T04:45:07;13.90;99.90
7530;DHT22;3806;52.270;10.544;2023-10-09T04:47:36;13.90;99.90
7530;DHT22;3806;52.270;10.544;2023-10-09T04:52:33;13.90;99.90
7530;DHT22;3806;52.270;10.544;2023-10-09T04:54:59;13.90;99.90
7530;DHT22;3806;52.270;10.544;2023-10-09T04:57:46;13.90;99.90
7530;DHT22;3806;52.270;10.544;2023-10-09T05:00:26;13.90;99.90
7530;DHT22;3806;52.270;10.544;2023-10-09T05:05:22;13.90;99.90
7530;DHT22;3806;52.270;10.544;2023-10-09T05:08:10;14.00;99.90
7530;DHT22;3806;52.270;10.544;2023-10-09T05:10:59;14.00;99.90
7530;DHT22;3806;52.270;10.544;2023-10-09T05:18:56;14.00;99.90
7530;DHT22;3806;52.270;10.544;2023-10-09T05:21:26;14.10;99.90
7530;DHT22;3806;52.270;10.544;2023-10-09T05:23:56;14.10;99.90
7530;DHT22;3806;52.270;10.544;2023-10-09T05:26:38;14.10;99.90
7530;DHT22;3806;52.270;10.544;2023-10-09T05:29:15;14.20;99.90
7530;DHT22;3806;52.270;10.544;2023-10-09T05:31:48;14.20;99.90
7530;DHT22;3806;52.270;10.544;2023-10-09T05:34:42;14.20;99.90
7530;DHT22;3806;52.270;10.544;2023-10-09T05:37:30;14.30;99.90
7530;DHT22;3806;52.270;10.544;2023-10-09T05:40:01;14.20;99.90
7530;DHT22;3806;52.270;10.544;2023-10-09T05:42:27;14.30;99.90
7530;DHT22;3806;52.270;10.544;2023-10-09T05:45:05;14.30;99.90
7530;DHT22;3806;52.270;10.544;2023-10-09T05:47:53;14.30;99.90
7530;DHT22;3806;52.270;10.544;2023-10-09T05:50:20;14.30;99.90
7530;DHT22;3806;52.270;10.544;2023-10-09T05:52:55;14.30;99.90
7530;DHT22;3806;52.270;10.544;2023-10-09T05:55:22;14.30;99.90
7530;DHT22;3806;52.270;10.544;2023-10-09T05:57:54;14.40;99.90
7530;DHT22;3806;52.270;10.544;2023-10-09T06:00:38;14.40;99.90
7530;DHT22;3806;52.270;10.544;2023-10-09T06:03:23;14.50;99.90
7530;DHT22;3806;52.270;10.544;2023-10-09T06:05:53;14.50;99.90
7530;DHT22;3806;52.270;10.544;2023-10-09T06:08:19;14.50;99.90
7530;DHT22;3806;52.270;10.544;2023-10-09T06:11:04;14.60;99.90
7530;DHT22;3806;52.270;10.544;2023-10-09T06:13:53;14.60;99.90
7530;DHT22;3806;52.270;10.544;2023-10-09T06:16:37;14.60;99.90
7530;DHT22;3806;52.270;10.544;2023-10-09T06:19:22;14.70;99.90
7530;DHT22;3806;52.270;10.544;2023-10-09T06:21:48;14.70;99.90
7530;DHT22;3806;52.270;10.544;2023-10-09T06:24:32;14.70;99.90
7530;DHT22;3806;52.270;10.544;2023-10-09T06:27:16;14.80;99.90
7530;DHT22;3806;52.270;10.544;2023-10-09T06:30:00;14.80;99.90
7530;DHT22;3806;52.270;10.544;2023-10-09T06:32:46;14.80;99.90
7530;DHT22;3806;52.270;10.544;2023-10-09T06:35:47;14.80;99.90
7530;DHT22;3806;52.270;10.544;2023-10-09T06:38:19;14.90;99.90
7530;DHT22;3806;52.270;10.544;2023-10-09T06:40:49;14.90;99.90
7530;DHT22;3806;52.270;10.544;2023-10-09T06:43:47;14.90;99.90
7530;DHT22;3806;52.270;10.544;2023-10-09T06:46:18;14.90;99.90
7530;DHT22;3806;52.270;10.544;2023-10-09T06:48:50;14.90;99.90
7530;DHT22;3806;52.270;10.544;2023-10-09T06:51:22;15.00;99.90
7530;DHT22;3806;52.270;10.544;2023-10-09T06:54:00;15.00;99.90
7530;DHT22;3806;52.270;10.544;2023-10-09T06:56:30;15.00;99.90
7530;DHT22;3806;52.270;10.544;2023-10-09T06:58:59;15.00;99.90
7530;DHT22;3806;52.270;10.544;2023-10-09T07:01:33;15.10;99.90
7530;DHT22;3806;52.270;10.544;2023-10-09T07:04:11;15.10;99.90
7530;DHT22;3806;52.270;10.544;2023-10-09T07:06:55;15.10;99.90
7530;DHT22;3806;52.270;10.544;2023-10-09T07:09:22;15.10;99.90
7530;DHT22;3806;52.270;10.544;2023-10-09T07:11:51;15.10;99.90
7530;DHT22;3806;52.270;10.544;2023-10-09T07:14:20;15.10;99.90
7530;DHT22;3806;52.270;10.544;2023-10-09T07:17:18;15.10;99.90
7530;DHT22;3806;52.270;10.544;2023-10-09T07:19:59;15.20;99.90
7530;DHT22;3806;52.270;10.544;2023-10-09T07:22:41;15.20;99.90
7530;DHT22;3806;52.270;10.544;2023-10-09T07:25:22;15.20;99.90
7530;DHT22;3806;52.270;10.544;2023-10-09T07:28:10;15.20;99.90
7530;DHT22;3806;52.270;10.544;2023-10-09T07:30:55;15.20;99.90
7530;DHT22;3806;52.270;10.544;2023-10-09T07:33:24;15.20;99.90
7530;DHT22;3806;52.270;10.544;2023-10-09T07:36:17;15.30;99.90
7530;DHT22;3806;52.270;10.544;2023-10-09T07:38:55;15.30;99.90
7530;DHT22;3806;52.270;10.544;2023-10-09T07:41:20;15.30;99.90
7530;DHT22;3806;52.270;10.544;2023-10-09T07:43:46;15.40;99.90
7530;DHT22;3806;52.270;10.544;2023-10-09T07:46:18;15.40;99.90
7530;DHT22;3806;52.270;10.544;2023-10-09T07:48:59;15.40;99.90
7530;DHT22;3806;52.270;10.544;2023-10-09T07:51:26;15.40;99.90
7530;DHT22;3806;52.270;10.544;2023-10-09T07:54:01;15.40;99.90
7530;DHT22;3806;52.270;10.544;2023-10-09T07:59:12;15.40;99.90
7530;DHT22;3806;52.270;10.544;2023-10-09T08:01:41;15.40;99.90
7530;DHT22;3806;52.270;10.544;2023-10-09T08:04:39;15.40;99.90
7530;DHT22;3806;52.270;10.544;2023-10-09T08:07:16;15.40;99.90
7530;DHT22;3806;52.270;10.544;2023-10-09T08:09:48;15.50;99.90
7530;DHT22;3806;52.270;10.544;2023-10-09T08:12:14;15.50;99.90
7530;DHT22;3806;52.270;10.544;2023-10-09T08:15:04;15.60;99.90
7530;DHT22;3806;52.270;10.544;2023-10-09T08:17:49;15.60;99.90
7530;DHT22;3806;52.270;10.544;2023-10-09T08:20:33;15.70;99.90
7530;DHT22;3806;52.270;10.544;2023-10-09T08:23:17;15.70;99.90
7530;DHT22;3806;52.270;10.544;2023-10-09T08:26:02;15.70;99.90
7530;DHT22;3806;52.270;10.544;2023-10-09T08:28:41;15.80;99.90
7530;DHT22;3806;52.270;10.544;2023-10-09T08:31:12;15.80;99.90
7530;DHT22;3806;52.270;10.544;2023-10-09T08:33:47;15.80;99.90
7530;DHT22;3806;52.270;10.544;2023-10-09T08:36:27;15.80;99.90
7530;DHT22;3806;52.270;10.544;2023-10-09T08:38:54;15.90;99.90
7530;DHT22;3806;52.270;10.544;2023-10-09T08:41:24;15.90;99.90
7530;DHT22;3806;52.270;10.544;2023-10-09T08:43:56;16.00;99.90
7530;DHT22;3806;52.270;10.544;2023-10-09T08:46:29;16.00;99.90
7530;DHT22;3806;52.270;10.544;2023-10-09T08:48:59;16.10;99.90
7530;DHT22;3806;52.270;10.544;2023-10-09T08:51:26;16.00;99.90
7530;DHT22;3806;52.270;10.544;2023-10-09T08:53:52;16.00;99.90
7530;DHT22;3806;52.270;10.544;2023-10-09T08:56:19;16.00;99.90
7530;DHT22;3806;52.270;10.544;2023-10-09T08:58:48;16.10;99.90
7530;DHT22;3806;52.270;10.544;2023-10-09T09:01:18;16.10;99.90
7530;DHT22;3806;52.270;10.544;2023-10-09T09:03:48;16.10;99.90
7530;DHT22;3806;52.270;10.544;2023-10-09T09:06:15;16.10;99.90
7530;DHT22;3806;52.270;10.544;2023-10-09T09:08:43;16.10;99.90
7530;DHT22;3806;52.270;10.544;2023-10-09T09:11:17;16.10;99.90
7530;DHT22;3806;52.270;10.544;2023-10-09T09:14:03;16.10;99.90
7530;DHT22;3806;52.270;10.544;2023-10-09T09:16:40;16.10;99.90
7530;DHT22;3806;52.270;10.544;2023-10-09T09:19:09;16.10;99.90
7530;DHT22;3806;52.270;10.544;2023-10-09T09:21:39;16.10;99.90
7530;DHT22;3806;52.270;10.544;2023-10-09T09:24:10;16.00;99.90
7530;DHT22;3806;52.270;10.544;2023-10-09T09:26:53;16.10;99.90
7530;DHT22;3806;52.270;10.544;2023-10-09T09:29:45;16.10;99.90
7530;DHT22;3806;52.270;10.544;2023-10-09T09:32:27;16.10;99.90
7530;DHT22;3806;52.270;10.544;2023-10-09T09:35:04;16.20;99.90
7530;DHT22;3806;52.270;10.544;2023-10-09T09:37:32;16.10;99.90
7530;DHT22;3806;52.270;10.544;2023-10-09T09:40:15;16.20;99.90
7530;DHT22;3806;52.270;10.544;2023-10-09T09:42:59;16.20;99.90
7530;DHT22;3806;52.270;10.544;2023-10-09T09:45:33;16.20;99.90
7530;DHT22;3806;52.270;10.544;2023-10-09T09:48:04;16.20;99.90
7530;DHT22;3806;52.270;10.544;2023-10-09T09:50:36;16.30;99.90
7530;DHT22;3806;52.270;10.544;2023-10-09T09:53:11;16.30;99.90
7530;DHT22;3806;52.270;10.544;2023-10-09T09:55:53;16.30;99.90
7530;DHT22;3806;52.270;10.544;2023-10-09T09:58:25;16.30;99.90
7530;DHT22;3806;52.270;10.544;2023-10-09T10:01:10;16.30;99.90
7530;DHT22;3806;52.270;10.544;2023-10-09T10:03:53;16.20;99.90
7530;DHT22;3806;52.270;10.544;2023-10-09T10:06:22;16.20;99.90
7530;DHT22;3806;52.270;10.544;2023-10-09T10:08:52;16.20;99.90
7530;DHT22;3806;52.270;10.544;2023-10-09T10:11:42;16.20;99.90
7530;DHT22;3806;52.270;10.544;2023-10-09T10:14:10;16.20;99.90
7530;DHT22;3806;52.270;10.544;2023-10-09T10:17:03;16.20;99.90
7530;DHT22;3806;52.270;10.544;2023-10-09T10:20:08;16.20;99.90
7530;DHT22;3806;52.270;10.544;2023-10-09T10:22:42;16.30;99.90
7530;DHT22;3806;52.270;10.544;2023-10-09T10:25:32;16.30;99.90
7530;DHT22;3806;52.270;10.544;2023-10-09T10:28:25;16.40;99.90
7530;DHT22;3806;52.270;10.544;2023-10-09T10:31:10;16.40;99.90
7530;DHT22;3806;52.270;10.544;2023-10-09T10:36:21;16.50;99.90
7530;DHT22;3806;52.270;10.544;2023-10-09T10:38:59;16.50;99.90
7530;DHT22;3806;52.270;10.544;2023-10-09T10:41:54;16.50;99.90
7530;DHT22;3806;52.270;10.544;2023-10-09T10:44:29;16.50;99.90
7530;DHT22;3806;52.270;10.544;2023-10-09T10:47:09;16.50;99.90
7530;DHT22;3806;52.270;10.544;2023-10-09T10:49:53;16.50;99.90
7530;DHT22;3806;52.270;10.544;2023-10-09T10:52:27;16.50;99.90
7530;DHT22;3806;52.270;10.544;2023-10-09T10:55:14;16.50;99.90
7530;DHT22;3806;52.270;10.544;2023-10-09T10:57:44;16.50;99.90
7530;DHT22;3806;52.270;10.544;2023-10-09T11:00:28;16.50;99.90
7530;DHT22;3806;52.270;10.544;2023-10-09T11:03:23;16.50;99.90
7530;DHT22;3806;52.270;10.544;2023-10-09T11:06:07;16.60;99.90
7530;DHT22;3806;52.270;10.544;2023-10-09T11:08:44;16.50;99.90
7530;DHT22;3806;52.270;10.544;2023-10-09T11:11:20;16.60;99.90
7530;DHT22;3806;52.270;10.544;2023-10-09T11:13:45;16.50;99.90
7530;DHT22;3806;52.270;10.544;2023-10-09T11:16:25;16.50;99.90
7530;DHT22;3806;52.270;10.544;2023-10-09T11:19:14;16.60;99.90
7530;DHT22;3806;52.270;10.544;2023-10-09T11:21:53;16.50;99.90
7530;DHT22;3806;52.270;10.544;2023-10-09T11:24:31;16.50;99.90
7530;DHT22;3806;52.270;10.544;2023-10-09T11:27:04;16.60;99.90
7530;DHT22;3806;52.270;10.544;2023-10-09T11:29:48;16.50;99.90
7530;DHT22;3806;52.270;10.544;2023-10-09T11:32:19;16.60;99.90
7530;DHT22;3806;52.270;10.544;2023-10-09T11:35:08;16.60;99.90
7530;DHT22;3806;52.270;10.544;2023-10-09T11:37:33;16.60;99.90
7530;DHT22;3806;52.270;10.544;2023-10-09T11:40:30;16.60;99.90
7530;DHT22;3806;52.270;10.544;2023-10-09T11:43:19;16.60;99.90
7530;DHT22;3806;52.270;10.544;2023-10-09T11:46:11;16.60;99.90
7530;DHT22;3806;52.270;10.544;2023-10-09T11:48:37;16.60;99.90
7530;DHT22;3806;52.270;10.544;2023-10-09T11:51:22;16.60;99.90
7530;DHT22;3806;52.270;10.544;2023-10-09T11:53:48;16.60;99.90
7530;DHT22;3806;52.270;10.544;2023-10-09T11:56:22;16.60;99.90
7530;DHT22;3806;52.270;10.544;2023-10-09T11:58:48;16.60;99.90
7530;DHT22;3806;52.270;10.544;2023-10-09T12:01:17;16.60;99.90
7530;DHT22;3806;52.270;10.544;2023-10-09T12:03:46;16.60;99.90
7530;DHT22;3806;52.270;10.544;2023-10-09T12:06:16;16.60;99.90
7530;DHT22;3806;52.270;10.544;2023-10-09T12:08:45;16.60;99.90
7530;DHT22;3806;52.270;10.544;2023-10-09T12:11:14;16.70;99.90
7530;DHT22;3806;52.270;10.544;2023-10-09T12:13:41;16.70;99.90
7530;DHT22;3806;52.270;10.544;2023-10-09T12:16:11;16.70;99.90
7530;DHT22;3806;52.270;10.544;2023-10-09T12:18:37;16.70;99.90
7530;DHT22;3806;52.270;10.544;2023-10-09T12:21:05;16.70;99.90
7530;DHT22;3806;52.270;10.544;2023-10-09T12:23:32;16.70;99.90
7530;DHT22;3806;52.270;10.544;2023-10-09T12:26:06;16.80;99.90
7530;DHT22;3806;52.270;10.544;2023-10-09T12:28:42;16.70;99.90
7530;DHT22;3806;52.270;10.544;2023-10-09T12:31:12;16.70;99.90
7530;DHT22;3806;52.270;10.544;2023-10-09T12:33:40;16.70;99.90
7530;DHT22;3806;52.270;10.544;2023-10-09T12:36:06;16.70;99.90
7530;DHT22;3806;52.270;10.544;2023-10-09T12:38:31;16.70;99.90
7530;DHT22;3806;52.270;10.544;2023-10-09T12:41:07;16.60;99.90
7530;DHT22;3806;52.270;10.544;2023-10-09T12:43:46;16.60;99.90
7530;DHT22;3806;52.270;10.544;2023-10-09T12:46:11;16.60;99.90
7530;DHT22;3806;52.270;10.544;2023-10-09T12:48:44;16.70;99.90
7530;DHT22;3806;52.270;10.544;2023-10-09T12:51:12;16.60;99.90
7530;DHT22;3806;52.270;10.544;2023-10-09T12:53:42;16.60;99.90
7530;DHT22;3806;52.270;10.544;2023-10-09T12:56:08;16.60;99.90
7530;DHT22;3806;52.270;10.544;2023-10-09T12:58:34;16.60;99.90
7530;DHT22;3806;52.270;10.544;2023-10-09T13:01:03;16.60;99.90
7530;DHT22;3806;52.270;10.544;2023-10-09T13:03:38;16.60;99.90
7530;DHT22;3806;52.270;10.544;2023-10-09T13:06:04;16.60;99.90
7530;DHT22;3806;52.270;10.544;2023-10-09T13:08:36;16.60;99.90
7530;DHT22;3806;52.270;10.544;2023-10-09T13:11:09;16.60;99.90
7530;DHT22;3806;52.270;10.544;2023-10-09T13:13:36;16.60;99.90
7530;DHT22;3806;52.270;10.544;2023-10-09T13:18:40;16.60;99.90
7530;DHT22;3806;52.270;10.544;2023-10-09T13:21:07;16.60;99.90
7530;DHT22;3806;52.270;10.544;2023-10-09T13:23:32;16.60;99.90
7530;DHT22;3806;52.270;10.544;2023-10-09T13:26:06;16.60;99.90
7530;DHT22;3806;52.270;10.544;2023-10-09T13:28:43;16.60;99.90
7530;DHT22;3806;52.270;10.544;2023-10-09T13:31:11;16.60;99.90
7530;DHT22;3806;52.270;10.544;2023-10-09T13:33:40;16.60;99.90
7530;DHT22;3806;52.270;10.544;2023-10-09T13:36:06;16.60;99.90
7530;DHT22;3806;52.270;10.544;2023-10-09T13:38:42;16.60;99.90
7530;DHT22;3806;52.270;10.544;2023-10-09T13:41:09;16.70;99.90
7530;DHT22;3806;52.270;10.544;2023-10-09T13:43:39;16.70;99.90
7530;DHT22;3806;52.270;10.544;2023-10-09T13:46:06;16.60;99.90
7530;DHT22;3806;52.270;10.544;2023-10-09T13:48:34;16.70;99.90
7530;DHT22;3806;52.270;10.544;2023-10-09T13:51:04;16.70;99.90
7530;DHT22;3806;52.270;10.544;2023-10-09T13:53:33;16.70;99.90
7530;DHT22;3806;52.270;10.544;2023-10-09T13:56:04;16.70;99.90
7530;DHT22;3806;52.270;10.544;2023-10-09T13:58:32;16.70;99.90
7530;DHT22;3806;52.270;10.544;2023-10-09T14:00:58;16.70;99.90
7530;DHT22;3806;52.270;10.544;2023-10-09T14:03:23;16.80;99.90
7530;DHT22;3806;52.270;10.544;2023-10-09T14:05:49;16.80;99.90
7530;DHT22;3806;52.270;10.544;2023-10-09T14:08:23;16.80;99.90
7530;DHT22;3806;52.270;10.544;2023-10-09T14:10:49;16.90;99.90
7530;DHT22;3806;52.270;10.544;2023-10-09T14:13:15;16.90;99.90
7530;DHT22;3806;52.270;10.544;2023-10-09T14:15:43;16.90;99.90
7530;DHT22;3806;52.270;10.544;2023-10-09T14:18:11;16.90;99.90
7530;DHT22;3806;52.270;10.544;2023-10-09T14:20:37;16.90;99.90
7530;DHT22;3806;52.270;10.544;2023-10-09T14:23:03;17.00;99.90
7530;DHT22;3806;52.270;10.544;2023-10-09T14:25:33;17.00;99.90
7530;DHT22;3806;52.270;10.544;2023-10-09T14:28:04;17.00;99.90
7530;DHT22;3806;52.270;10.544;2023-10-09T14:30:33;17.10;99.90
7530;DHT22;3806;52.270;10.544;2023-10-09T14:33:08;17.10;99.90
7530;DHT22;3806;52.270;10.544;2023-10-09T14:35:38;17.10;99.90
7530;DHT22;3806;52.270;10.544;2023-10-09T14:38:05;17.10;99.90
7530;DHT22;3806;52.270;10.544;2023-10-09T14:40:40;17.10;99.90
7530;DHT22;3806;52.270;10.544;2023-10-09T14:43:07;17.10;99.90
7530;DHT22;3806;52.270;10.544;2023-10-09T14:45:36;17.10;99.90
7530;DHT22;3806;52.270;10.544;2023-10-09T14:48:02;17.10;99.90
7530;DHT22;3806;52.270;10.544;2023-10-09T14:50:28;17.10;99.90
7530;DHT22;3806;52.270;10.544;2023-10-09T14:52:53;17.10;99.90
7530;DHT22;3806;52.270;10.544;2023-10-09T14:55:19;17.20;99.90
7530;DHT22;3806;52.270;10.544;2023-10-09T14:57:54;17.10;99.90
7530;DHT22;3806;52.270;10.544;2023-10-09T15:00:20;17.10;99.90
7530;DHT22;3806;52.270;10.544;2023-10-09T15:02:49;17.10;99.90
7530;DHT22;3806;52.270;10.544;2023-10-09T15:05:16;17.20;99.90
7530;DHT22;3806;52.270;10.544;2023-10-09T15:07:42;17.10;99.90
7530;DHT22;3806;52.270;10.544;2023-10-09T15:10:08;17.10;99.90
7530;DHT22;3806;52.270;10.544;2023-10-09T15:12:35;17.10;99.90
7530;DHT22;3806;52.270;10.544;2023-10-09T15:15:06;17.10;99.90
7530;DHT22;3806;52.270;10.544;2023-10-09T15:17:42;17.10;99.90
7530;DHT22;3806;52.270;10.544;2023-10-09T15:20:13;17.10;99.90
7530;DHT22;3806;52.270;10.544;2023-10-09T15:22:43;17.10;99.90
7530;DHT22;3806;52.270;10.544;2023-10-09T15:25:09;17.10;99.90
7530;DHT22;3806;52.270;10.544;2023-10-09T15:27:40;17.00;99.90
7530;DHT22;3806;52.270;10.544;2023-10-09T15:30:06;17.00;99.90
7530;DHT22;3806;52.270;10.544;2023-10-09T15:32:33;17.00;99.90
7530;DHT22;3806;52.270;10.544;2023-10-09T15:35:00;17.00;99.90
7530;DHT22;3806;52.270;10.544;2023-10-09T15:37:28;17.00;99.90
7530;DHT22;3806;52.270;10.544;2023-10-09T15:39:54;17.00;99.90
7530;DHT22;3806;52.270;10.544;2023-10-09T15:42:20;17.00;99.90
7530;DHT22;3806;52.270;10.544;2023-10-09T15:44:45;17.00;99.90
7530;DHT22;3806;52.270;10.544;2023-10-09T15:47:13;17.00;99.90
7530;DHT22;3806;52.270;10.544;2023-10-09T15:49:41;17.00;99.90
7530;DHT22;3806;52.270;10.544;2023-10-09T15:52:06;17.00;99.90
7530;DHT22;3806;52.270;10.544;2023-10-09T15:54:34;17.00;99.90
7530;DHT22;3806;52.270;10.544;2023-10-09T15:57:00;17.00;99.90
7530;DHT22;3806;52.270;10.544;2023-10-09T15:59:25;17.00;99.90
7530;DHT22;3806;52.270;10.544;2023-10-09T16:01:51;17.00;99.90
7530;DHT22;3806;52.270;10.544;2023-10-09T16:04:18;17.00;99.90
7530;DHT22;3806;52.270;10.544;2023-10-09T16:06:44;17.00;99.90
7530;DHT22;3806;52.270;10.544;2023-10-09T16:09:09;17.00;99.90
7530;DHT22;3806;52.270;10.544;2023-10-09T16:11:37;17.10;99.90
7530;DHT22;3806;52.270;10.544;2023-10-09T16:14:05;17.10;99.90
7530;DHT22;3806;52.270;10.544;2023-10-09T16:16:35;17.10;99.90
7530;DHT22;3806;52.270;10.544;2023-10-09T16:19:10;17.10;99.90
7530;DHT22;3806;52.270;10.544;2023-10-09T16:21:36;17.00;99.90
7530;DHT22;3806;52.270;10.544;2023-10-09T16:24:02;17.00;99.90
7530;DHT22;3806;52.270;10.544;2023-10-09T16:26:30;17.00;99.90
7530;DHT22;3806;52.270;10.544;2023-10-09T16:29:07;17.00;99.90
7530;DHT22;3806;52.270;10.544;2023-10-09T16:31:34;17.00;99.90
7530;DHT22;3806;52.270;10.544;2023-10-09T16:34:06;17.00;99.90
7530;DHT22;3806;52.270;10.544;2023-10-09T16:36:35;17.00;99.90
7530;DHT22;3806;52.270;10.544;2023-10-09T16:39:01;17.00;99.90
7530;DHT22;3806;52.270;10.544;2023-10-09T16:41:27;17.00;99.90